createdAt,value
2023-01-29T00:00:24.742Z,18.85
2023-01-29T00:02:52.196Z,18.70
2023-01-29T00:05:27.818Z,19.40
2023-01-29T00:07:56.376Z,22.23
2023-01-29T00:10:24.592Z,20.23
2023-01-29T00:12:51.801Z,19.52
2023-01-29T00:15:18.835Z,20.17
2023-01-29T00:17:45.695Z,18.55
2023-01-29T00:20:12.707Z,19.25
2023-01-29T00:22:39.347Z,19.50
2023-01-29T00:25:06.642Z,20.08
2023-01-29T00:27:34.410Z,19.65
2023-01-29T00:30:12.734Z,19.25
2023-01-29T00:32:40.468Z,19.17
2023-01-29T00:35:09.023Z,18.13
2023-01-29T00:37:36.194Z,18.75
2023-01-29T00:40:03.844Z,18.95
2023-01-29T00:42:49.097Z,18.45
2023-01-29T00:45:15.848Z,19.55
2023-01-29T00:47:42.585Z,18.42
2023-01-29T00:50:11.434Z,18.35
2023-01-29T00:55:06.032Z,18.15
2023-01-29T00:57:34.109Z,18.00
2023-01-29T01:00:01.368Z,18.13
2023-01-29T01:02:47.437Z,17.77
2023-01-29T01:05:19.183Z,16.95
2023-01-29T01:07:51.065Z,17.42
2023-01-29T01:10:24.458Z,17.58
2023-01-29T01:13:12.570Z,15.75
2023-01-29T01:15:40.134Z,17.23
2023-01-29T01:18:06.912Z,17.00
2023-01-29T01:20:34.899Z,16.45
2023-01-29T01:23:02.097Z,16.90
2023-01-29T01:25:29.159Z,15.43
2023-01-29T01:27:57.472Z,16.70
2023-01-29T01:30:24.559Z,16.55
2023-01-29T01:32:51.565Z,16.88
2023-01-29T01:35:18.497Z,17.42
2023-01-29T01:37:45.113Z,17.83
2023-01-29T01:40:18.376Z,17.33
2023-01-29T01:42:49.316Z,17.15
2023-01-29T01:45:33.583Z,17.27
2023-01-29T01:48:13.068Z,17.30
2023-01-29T01:51:03.411Z,16.73
2023-01-29T01:53:43.607Z,16.85
2023-01-29T01:56:14.140Z,17.65
2023-01-29T01:58:46.993Z,18.17
2023-01-29T02:01:13.932Z,17.45
2023-01-29T02:04:11.323Z,18.30
2023-01-29T02:06:59.191Z,18.83
2023-01-29T02:09:46.487Z,17.83
2023-01-29T02:12:16.222Z,17.50
2023-01-29T02:14:44.094Z,17.30
2023-01-29T02:17:13.985Z,17.50
2023-01-29T02:20:07.688Z,16.70
2023-01-29T02:22:56.099Z,17.15
2023-01-29T02:25:44.902Z,18.23
2023-01-29T02:28:25.472Z,16.75
2023-01-29T02:31:13.340Z,17.67
2023-01-29T02:34:17.337Z,18.25
2023-01-29T02:37:03.208Z,17.33
2023-01-29T02:39:48.024Z,18.30
2023-01-29T02:42:35.756Z,17.30
2023-01-29T02:45:09.679Z,18.40
2023-01-29T02:47:46.532Z,17.35
2023-01-29T02:50:28.376Z,17.25
2023-01-29T02:53:06.430Z,17.10
2023-01-29T02:56:07.135Z,18.15
2023-01-29T02:58:43.022Z,18.58
2023-01-29T03:01:37.124Z,17.83
2023-01-29T03:04:19.480Z,17.33
2023-01-29T03:06:54.392Z,18.80
2023-01-29T03:09:30.180Z,18.75
2023-01-29T03:12:19.935Z,19.33
2023-01-29T03:15:09.595Z,18.50
2023-01-29T03:17:46.906Z,19.52
2023-01-29T03:20:18.939Z,19.55
2023-01-29T03:22:52.367Z,20.27
2023-01-29T03:25:40.436Z,19.70
2023-01-29T03:28:28.829Z,19.23
2023-01-29T03:31:19.941Z,19.38
2023-01-29T03:33:54.537Z,20.10
2023-01-29T03:36:45.333Z,18.75
2023-01-29T03:39:13.647Z,19.73
2023-01-29T03:41:57.772Z,19.98
2023-01-29T03:44:40.260Z,20.73
2023-01-29T03:47:42.053Z,21.77
2023-01-29T03:50:18.068Z,21.83
2023-01-29T03:53:14.255Z,21.67
2023-01-29T03:56:07.271Z,22.73
2023-01-29T03:58:45.165Z,22.05
2023-01-29T04:01:34.075Z,23.70
2023-01-29T04:04:20.301Z,22.75
2023-01-29T04:06:50.362Z,23.20
2023-01-29T04:09:25.242Z,23.55
2023-01-29T04:12:13.678Z,23.70
2023-01-29T04:14:40.407Z,23.25
2023-01-29T04:17:16.475Z,24.00
2023-01-29T04:19:44.355Z,23.33
2023-01-29T04:22:25.985Z,24.60
2023-01-29T04:24:52.801Z,24.25
2023-01-29T04:27:37.510Z,25.00
2023-01-29T04:30:30.725Z,24.45
2023-01-29T04:33:21.891Z,24.05
2023-01-29T04:36:00.060Z,25.05
2023-01-29T04:38:56.537Z,25.52
2023-01-29T04:41:51.828Z,24.42
2023-01-29T04:44:55.025Z,25.33
2023-01-29T04:47:44.999Z,24.60
2023-01-29T04:50:24.071Z,24.23
2023-01-29T04:53:04.042Z,24.02
2023-01-29T04:55:51.713Z,25.02
2023-01-29T04:58:32.276Z,25.88
2023-01-29T05:01:00.846Z,25.17
2023-01-29T05:03:30.115Z,26.48
2023-01-29T05:05:59.757Z,24.73
2023-01-29T05:08:29.240Z,24.42
2023-01-29T05:10:58.707Z,25.75
2023-01-29T05:13:26.735Z,25.38
2023-01-29T05:15:59.300Z,26.17
2023-01-29T05:18:26.315Z,25.10
2023-01-29T05:20:55.508Z,26.23
2023-01-29T05:23:23.139Z,25.88
2023-01-29T05:25:51.659Z,25.73
2023-01-29T05:28:18.710Z,25.73
2023-01-29T05:30:47.485Z,25.77
2023-01-29T05:33:17.151Z,26.27
2023-01-29T05:35:44.415Z,24.15
2023-01-29T05:38:11.738Z,26.85
2023-01-29T05:40:39.120Z,25.45
2023-01-29T05:43:12.944Z,25.33
2023-01-29T05:45:39.683Z,25.50
2023-01-29T05:48:06.353Z,24.08
2023-01-29T05:50:33.067Z,25.52
2023-01-29T05:53:01.136Z,26.00
2023-01-29T05:55:31.922Z,25.33
2023-01-29T05:57:58.850Z,27.45
2023-01-29T06:00:25.568Z,26.33
2023-01-29T06:02:52.425Z,25.58
2023-01-29T06:05:19.137Z,26.98
2023-01-29T06:07:46.108Z,26.73
2023-01-29T06:10:15.392Z,26.88
2023-01-29T06:12:43.454Z,26.15
2023-01-29T06:15:12.037Z,25.77
2023-01-29T06:17:39.015Z,26.83
2023-01-29T06:20:06.446Z,27.88
2023-01-29T06:22:33.726Z,27.65
2023-01-29T06:25:00.470Z,26.23
2023-01-29T06:27:27.280Z,25.83
2023-01-29T06:29:54.022Z,27.17
2023-01-29T06:32:20.718Z,25.83
2023-01-29T06:34:49.687Z,25.88
2023-01-29T06:37:16.518Z,26.80
2023-01-29T06:39:43.160Z,26.00
2023-01-29T06:42:11.141Z,26.88
2023-01-29T06:44:37.822Z,26.07
2023-01-29T06:47:04.622Z,26.08
2023-01-29T06:49:31.604Z,26.48
2023-01-29T06:51:58.283Z,25.67
2023-01-29T06:54:25.027Z,26.45
2023-01-29T06:56:51.992Z,25.95
2023-01-29T06:59:19.744Z,26.15
2023-01-29T07:01:47.009Z,25.50
2023-01-29T07:04:14.251Z,25.15
2023-01-29T07:06:41.412Z,24.38
2023-01-29T07:09:08.618Z,24.80
2023-01-29T07:11:37.798Z,25.20
2023-01-29T07:14:04.957Z,24.92
2023-01-29T07:16:33.252Z,23.98
2023-01-29T07:19:00.454Z,23.92
2023-01-29T07:21:28.016Z,23.48
2023-01-29T07:23:55.204Z,24.10
2023-01-29T07:26:22.309Z,23.92
2023-01-29T07:28:49.388Z,24.08
2023-01-29T07:31:16.624Z,23.67
2023-01-29T07:33:44.610Z,23.77
2023-01-29T07:36:12.562Z,22.23
2023-01-29T07:38:39.639Z,23.27
2023-01-29T07:41:06.762Z,23.63
2023-01-29T07:43:33.857Z,22.27
2023-01-29T07:46:05.001Z,22.98
2023-01-29T07:48:32.219Z,23.30
2023-01-29T07:50:59.346Z,23.15
2023-01-29T07:53:26.633Z,21.90
2023-01-29T07:55:53.855Z,21.85
2023-01-29T07:58:21.251Z,22.10
2023-01-29T08:00:48.378Z,21.25
2023-01-29T08:03:16.669Z,22.45
2023-01-29T08:05:44.571Z,22.40
2023-01-29T08:08:11.637Z,22.10
2023-01-29T08:10:40.614Z,21.58
2023-01-29T08:13:08.210Z,21.40
2023-01-29T08:15:37.173Z,21.70
2023-01-29T08:18:05.413Z,22.25
2023-01-29T08:20:32.327Z,21.10
2023-01-29T08:23:03.703Z,20.92
2023-01-29T08:25:30.700Z,21.90
2023-01-29T08:27:58.383Z,22.13
2023-01-29T08:30:29.765Z,22.02
2023-01-29T08:32:56.456Z,20.33
2023-01-29T08:35:23.319Z,19.40
2023-01-29T08:38:01.313Z,21.08
2023-01-29T08:40:29.409Z,20.95
2023-01-29T08:43:08.688Z,20.13
2023-01-29T08:45:38.657Z,20.23
2023-01-29T08:48:08.288Z,19.83
2023-01-29T08:50:35.830Z,20.45
2023-01-29T08:53:05.362Z,19.92
2023-01-29T08:55:31.981Z,20.27
2023-01-29T08:57:58.646Z,20.35
2023-01-29T09:00:27.782Z,20.02
2023-01-29T09:02:54.519Z,20.70
2023-01-29T09:05:21.358Z,21.55
2023-01-29T09:07:48.013Z,19.60
2023-01-29T09:10:15.624Z,20.23
2023-01-29T09:12:42.401Z,19.98
2023-01-29T09:15:10.732Z,21.58
2023-01-29T09:17:37.373Z,21.55
2023-01-29T09:20:06.146Z,20.63
2023-01-29T09:22:34.096Z,21.38
2023-01-29T09:25:00.809Z,21.37
2023-01-29T09:27:27.485Z,21.77
2023-01-29T09:29:54.349Z,21.30
2023-01-29T09:32:49.662Z,21.23
2023-01-29T09:35:08.107Z,21.63
2023-01-29T09:37:34.959Z,20.48
2023-01-29T09:40:01.603Z,22.35
2023-01-29T09:42:41.196Z,20.55
2023-01-29T09:45:16.244Z,21.73
2023-01-29T09:47:44.693Z,21.27
2023-01-29T09:50:20.226Z,20.48
2023-01-29T09:52:53.970Z,21.23
2023-01-29T09:55:27.540Z,21.80
2023-01-29T09:58:06.145Z,20.60
2023-01-29T10:00:46.615Z,22.27
2023-01-29T10:03:37.399Z,21.85
2023-01-29T10:06:09.518Z,22.63
2023-01-29T10:09:09.129Z,21.52
2023-01-29T10:12:00.617Z,22.08
2023-01-29T10:14:43.266Z,22.80
2023-01-29T10:17:42.494Z,22.63
2023-01-29T10:20:32.892Z,22.85
2023-01-29T10:23:25.074Z,23.13
2023-01-29T10:25:53.611Z,23.70
2023-01-29T10:28:37.966Z,23.35
2023-01-29T10:31:09.577Z,23.33
2023-01-29T10:33:59.439Z,24.95
2023-01-29T10:36:47.519Z,24.35
2023-01-29T10:39:22.111Z,24.13
2023-01-29T10:42:18.802Z,24.67
2023-01-29T10:45:15.878Z,24.35
2023-01-29T10:48:04.894Z,24.23
2023-01-29T10:51:01.791Z,24.65
2023-01-29T10:53:40.094Z,25.98
2023-01-29T10:56:23.064Z,25.23
2023-01-29T10:59:14.889Z,25.17
2023-01-29T11:01:41.675Z,26.50
2023-01-29T11:04:11.759Z,24.15
2023-01-29T11:06:38.812Z,27.27
2023-01-29T11:09:29.215Z,27.13
2023-01-29T11:12:15.371Z,28.88
2023-01-29T11:14:53.704Z,28.90
2023-01-29T11:17:23.573Z,27.05
2023-01-29T11:19:52.169Z,26.60
2023-01-29T11:22:21.402Z,26.50
2023-01-29T11:25:07.441Z,26.60
2023-01-29T11:27:39.747Z,26.92
2023-01-29T11:30:15.344Z,28.00
2023-01-29T11:32:42.448Z,27.77
2023-01-29T11:35:14.910Z,29.02
2023-01-29T11:37:44.490Z,27.55
2023-01-29T11:40:20.659Z,28.88
2023-01-29T11:42:48.328Z,28.63
2023-01-29T11:45:34.870Z,28.30
2023-01-29T11:48:01.815Z,27.50
2023-01-29T11:50:31.463Z,29.88
2023-01-29T11:53:01.942Z,29.65
2023-01-29T11:55:48.174Z,29.17
2023-01-29T11:58:30.674Z,29.20
2023-01-29T12:00:58.649Z,29.13
2023-01-29T12:03:41.447Z,29.80
2023-01-29T12:06:19.829Z,30.33
2023-01-29T12:08:58.362Z,31.13
2023-01-29T12:11:30.161Z,30.55
2023-01-29T12:13:59.970Z,31.00
2023-01-29T12:16:35.591Z,31.25
2023-01-29T12:19:29.305Z,30.92
2023-01-29T12:22:01.146Z,30.73
2023-01-29T12:24:44.215Z,29.27
2023-01-29T12:27:26.863Z,32.28
2023-01-29T12:30:25.854Z,31.95
2023-01-29T12:32:56.736Z,30.33
2023-01-29T12:35:35.689Z,29.65
2023-01-29T12:38:04.215Z,31.17
2023-01-29T12:40:41.845Z,30.65
2023-01-29T12:43:18.973Z,32.30
2023-01-29T12:45:48.807Z,30.38
2023-01-29T12:48:20.004Z,30.70
2023-01-29T12:50:47.524Z,31.15
2023-01-29T12:53:20.708Z,32.45
2023-01-29T12:55:50.125Z,33.15
2023-01-29T12:58:21.748Z,31.30
2023-01-29T13:00:58.659Z,32.40
2023-01-29T13:03:29.074Z,31.10
2023-01-29T13:05:57.925Z,30.52
2023-01-29T13:10:53.842Z,31.55
2023-01-29T13:15:48.691Z,30.17
2023-01-29T13:18:38.524Z,31.08
2023-01-29T13:21:06.286Z,30.02
2023-01-29T13:23:41.341Z,31.27
2023-01-29T13:26:08.808Z,31.48
2023-01-29T13:28:37.079Z,30.35
2023-01-29T13:31:31.522Z,30.73
2023-01-29T13:34:13.385Z,30.83
2023-01-29T13:36:47.539Z,28.67
2023-01-29T13:39:37.531Z,28.73
2023-01-29T13:42:16.809Z,30.17
2023-01-29T13:44:49.269Z,29.08
2023-01-29T13:47:43.295Z,28.48
2023-01-29T13:50:38.767Z,29.58
2023-01-29T13:53:08.233Z,27.35
2023-01-29T13:55:40.039Z,28.70
2023-01-29T13:58:13.929Z,27.85
2023-01-29T14:00:40.551Z,28.08
2023-01-29T14:03:13.355Z,25.73
2023-01-29T14:05:44.270Z,27.08
2023-01-29T14:08:14.039Z,27.60
2023-01-29T14:10:42.826Z,26.20
2023-01-29T14:13:18.597Z,26.48
2023-01-29T14:16:06.141Z,26.30
2023-01-29T14:18:35.075Z,27.52
2023-01-29T14:21:07.075Z,27.05
2023-01-29T14:23:36.180Z,25.42
2023-01-29T14:26:19.627Z,26.55
2023-01-29T14:29:07.552Z,27.75
2023-01-29T14:31:51.978Z,26.77
2023-01-29T14:34:27.443Z,25.58
2023-01-29T14:36:57.205Z,27.27
2023-01-29T14:39:31.351Z,25.95
2023-01-29T14:41:59.337Z,28.40
2023-01-29T14:44:44.683Z,27.00
2023-01-29T14:47:21.503Z,25.38
2023-01-29T14:49:54.192Z,26.23
2023-01-29T14:52:35.877Z,26.25
2023-01-29T14:55:07.086Z,26.23
2023-01-29T14:57:35.809Z,27.05
2023-01-29T15:00:06.257Z,26.88
2023-01-29T15:02:44.646Z,24.75
2023-01-29T15:05:20.067Z,27.27
2023-01-29T15:07:56.993Z,25.60
2023-01-29T15:10:42.061Z,26.40
2023-01-29T15:13:18.469Z,25.48
2023-01-29T15:15:54.204Z,26.90
2023-01-29T15:18:32.737Z,26.15
2023-01-29T15:21:05.935Z,26.27
2023-01-29T15:23:34.247Z,26.73
2023-01-29T15:26:04.259Z,25.30
2023-01-29T15:28:33.136Z,25.13
2023-01-29T15:33:28.437Z,24.63
2023-01-29T15:36:07.619Z,24.73
2023-01-29T15:38:37.693Z,24.50
2023-01-29T15:41:16.321Z,24.25
2023-01-29T15:43:57.522Z,23.75
2023-01-29T15:46:29.009Z,23.13
2023-01-29T15:48:59.491Z,24.40
2023-01-29T15:51:27.929Z,25.33
2023-01-29T15:53:57.976Z,24.85
2023-01-29T15:56:29.248Z,23.48
2023-01-29T15:58:58.949Z,24.23
2023-01-29T16:01:29.421Z,23.83
2023-01-29T16:03:59.452Z,23.42
2023-01-29T16:06:37.858Z,26.10
2023-01-29T16:09:05.996Z,25.83
2023-01-29T16:11:34.527Z,25.40
2023-01-29T16:14:02.727Z,25.83
2023-01-29T16:16:29.560Z,25.48
2023-01-29T16:19:01.263Z,25.00
2023-01-29T16:21:31.066Z,24.45
2023-01-29T16:24:01.902Z,25.50
2023-01-29T16:26:32.950Z,23.73
2023-01-29T16:29:05.440Z,25.20
2023-01-29T16:31:33.068Z,24.88
2023-01-29T16:34:18.137Z,25.83
2023-01-29T16:36:47.472Z,24.85
2023-01-29T16:39:27.085Z,25.08
2023-01-29T16:42:22.825Z,26.75
2023-01-29T16:45:03.014Z,27.27
2023-01-29T16:47:29.746Z,26.17
2023-01-29T16:49:59.433Z,27.55
2023-01-29T16:52:26.115Z,26.88
2023-01-29T16:54:58.448Z,28.52
2023-01-29T16:57:31.595Z,27.30
2023-01-29T17:00:01.610Z,26.42
2023-01-29T17:02:35.878Z,26.48
2023-01-29T17:05:09.993Z,27.30
2023-01-29T17:07:37.908Z,28.67
2023-01-29T17:10:06.551Z,29.63
2023-01-29T17:12:34.242Z,28.42
2023-01-29T17:15:04.574Z,26.85
2023-01-29T17:17:33.703Z,27.63
2023-01-29T17:20:27.879Z,27.55
2023-01-29T17:22:54.788Z,28.35
2023-01-29T17:25:22.074Z,28.08
2023-01-29T17:27:51.760Z,29.40
2023-01-29T17:30:22.239Z,30.33
2023-01-29T17:32:49.122Z,27.55
2023-01-29T17:35:17.401Z,25.63
2023-01-29T17:37:44.510Z,29.60
2023-01-29T17:40:36.263Z,27.90
2023-01-29T17:43:02.995Z,25.92
2023-01-29T17:45:29.717Z,27.08
2023-01-29T17:47:56.479Z,28.00
2023-01-29T17:50:27.270Z,27.65
2023-01-29T17:52:54.082Z,27.33
2023-01-29T17:55:21.145Z,28.75
2023-01-29T17:57:47.802Z,28.55
2023-01-29T18:00:20.486Z,31.30
2023-01-29T18:02:47.417Z,32.60
2023-01-29T18:05:15.791Z,31.83
2023-01-29T18:07:45.865Z,31.75
2023-01-29T18:10:20.645Z,29.10
2023-01-29T18:12:47.636Z,28.58
2023-01-29T18:15:15.121Z,31.83
2023-01-29T18:17:42.304Z,31.20
2023-01-29T18:20:17.749Z,32.33
2023-01-29T18:22:44.988Z,32.88
2023-01-29T18:25:12.274Z,30.85
2023-01-29T18:27:39.041Z,29.80
2023-01-29T18:30:06.558Z,29.70
2023-01-29T18:32:33.233Z,30.73
2023-01-29T18:35:00.025Z,31.73
2023-01-29T18:37:26.874Z,30.88
2023-01-29T18:39:53.882Z,32.60
2023-01-29T18:42:20.665Z,29.15
2023-01-29T18:44:47.440Z,30.63
2023-01-29T18:47:14.289Z,31.00
2023-01-29T18:49:40.978Z,32.38
2023-01-29T18:52:08.329Z,31.52
2023-01-29T18:54:34.991Z,29.65
2023-01-29T18:57:08.783Z,30.55
2023-01-29T18:59:41.018Z,29.38
2023-01-29T19:02:08.058Z,31.27
2023-01-29T19:04:34.899Z,32.40
2023-01-29T19:07:01.681Z,28.75
2023-01-29T19:09:28.459Z,30.90
2023-01-29T19:11:55.251Z,29.42
2023-01-29T19:14:21.959Z,31.98
2023-01-29T19:16:49.623Z,41.80
2023-01-29T19:19:16.888Z,32.72
2023-01-29T19:21:43.638Z,30.25
2023-01-29T19:24:11.716Z,29.65
2023-01-29T19:26:38.473Z,32.78
2023-01-29T19:29:05.170Z,29.35
2023-01-29T19:31:31.970Z,29.55
2023-01-29T19:33:58.829Z,29.23
2023-01-29T19:36:26.076Z,28.55
2023-01-29T19:38:52.712Z,29.35
2023-01-29T19:41:19.519Z,29.17
2023-01-29T19:43:48.150Z,32.45
2023-01-29T19:46:15.808Z,30.08
2023-01-29T19:48:42.483Z,29.88
2023-01-29T19:51:13.490Z,30.42
2023-01-29T19:53:45.332Z,30.27
2023-01-29T19:56:15.394Z,27.35
2023-01-29T19:58:42.747Z,28.70
2023-01-29T20:01:20.955Z,27.73
2023-01-29T20:03:49.195Z,31.17
2023-01-29T20:06:19.348Z,28.92
2023-01-29T20:08:46.661Z,30.50
2023-01-29T20:11:18.385Z,29.20
2023-01-29T20:13:47.484Z,28.00
2023-01-29T20:16:14.310Z,29.90
2023-01-29T20:18:41.028Z,29.63
2023-01-29T20:21:10.712Z,30.35
2023-01-29T20:23:39.736Z,31.17
2023-01-29T20:26:08.050Z,31.33
2023-01-29T20:28:35.039Z,30.45
2023-01-29T20:31:02.027Z,29.77
2023-01-29T20:33:29.064Z,31.25
2023-01-29T20:36:00.239Z,30.25
2023-01-29T20:38:30.526Z,31.85
2023-01-29T20:41:17.742Z,32.42
2023-01-29T20:43:45.665Z,32.97
2023-01-29T20:46:13.198Z,30.43
2023-01-29T20:48:42.079Z,32.10
2023-01-29T20:51:13.643Z,32.28
2023-01-29T20:53:41.136Z,32.50
2023-01-29T20:56:09.109Z,33.58
2023-01-29T20:58:38.488Z,34.80
2023-01-29T21:01:15.431Z,34.53
2023-01-29T21:03:42.649Z,35.45
2023-01-29T21:06:10.874Z,36.10
2023-01-29T21:08:37.889Z,33.33
2023-01-29T21:11:06.561Z,36.17
2023-01-29T21:13:33.718Z,35.55
2023-01-29T21:16:00.578Z,33.17
2023-01-29T21:18:27.238Z,35.95
2023-01-29T21:20:54.322Z,34.08
2023-01-29T21:23:24.003Z,35.88
2023-01-29T21:25:50.806Z,34.53
2023-01-29T21:28:17.574Z,34.17
2023-01-29T21:30:44.468Z,34.70
2023-01-29T21:33:11.345Z,34.80
2023-01-29T21:35:38.455Z,35.50
2023-01-29T21:38:05.155Z,34.28
2023-01-29T21:40:31.950Z,35.58
2023-01-29T21:43:15.312Z,36.42
2023-01-29T21:45:42.714Z,35.13
2023-01-29T21:48:11.197Z,33.35
2023-01-29T21:50:38.353Z,36.30
2023-01-29T21:53:05.159Z,34.88
2023-01-29T21:55:32.744Z,35.38
2023-01-29T21:58:00.313Z,33.80
2023-01-29T22:00:28.337Z,34.08
2023-01-29T22:02:55.159Z,34.83
2023-01-29T22:05:21.942Z,34.00
2023-01-29T22:07:49.536Z,33.70
2023-01-29T22:10:17.717Z,33.92
2023-01-29T22:12:45.020Z,34.03
2023-01-29T22:15:13.576Z,34.40
2023-01-29T22:17:41.508Z,33.03
2023-01-29T22:20:13.701Z,33.10
2023-01-29T22:22:40.661Z,33.13
2023-01-29T22:25:07.685Z,33.70
2023-01-29T22:27:34.803Z,32.67
2023-01-29T22:30:01.563Z,32.45
2023-01-29T22:32:28.515Z,31.98
2023-01-29T22:34:55.327Z,31.83
2023-01-29T22:37:22.042Z,32.55
2023-01-29T22:39:48.840Z,32.50
2023-01-29T22:42:15.482Z,30.38
2023-01-29T22:44:42.696Z,30.88
2023-01-29T22:47:09.434Z,31.27
2023-01-29T22:49:36.158Z,60.78
2023-01-29T22:52:11.865Z,35.35
2023-01-29T22:54:42.937Z,30.58
2023-01-29T22:57:14.952Z,30.67
2023-01-29T22:59:41.734Z,31.40
2023-01-29T23:02:08.846Z,30.40
2023-01-29T23:04:35.813Z,31.05
2023-01-29T23:07:02.728Z,29.50
2023-01-29T23:09:29.492Z,31.80
2023-01-29T23:11:56.223Z,30.42
2023-01-29T23:14:22.951Z,29.02
2023-01-29T23:16:49.708Z,30.60
2023-01-29T23:19:16.466Z,30.00
2023-01-29T23:21:43.384Z,30.35
2023-01-29T23:24:10.577Z,28.95
2023-01-29T23:26:56.276Z,28.77
2023-01-29T23:29:23.328Z,29.75
2023-01-29T23:31:50.157Z,27.58
2023-01-29T23:34:17.089Z,28.13
2023-01-29T23:36:44.126Z,28.02
2023-01-29T23:39:11.227Z,28.90
2023-01-29T23:41:37.984Z,27.45
2023-01-29T23:44:05.062Z,29.45
2023-01-29T23:46:37.270Z,26.95
2023-01-29T23:49:04.240Z,27.98
2023-01-29T23:51:31.074Z,29.55
2023-01-29T23:53:57.946Z,28.05
2023-01-29T23:56:24.643Z,26.88
2023-01-29T23:58:55.907Z,27.92
